createdAt,value
2023-03-21T00:00:44.293Z,67.90
2023-03-21T00:03:12.431Z,67.69
2023-03-21T00:05:52.243Z,67.78
2023-03-21T00:08:24.624Z,67.71
2023-03-21T00:11:00.950Z,67.64
2023-03-21T00:13:33.133Z,67.57
2023-03-21T00:16:15.761Z,67.42
2023-03-21T00:18:52.735Z,67.67
2023-03-21T00:24:15.652Z,67.36
2023-03-21T00:26:42.659Z,67.59
2023-03-21T00:29:10.669Z,67.59
2023-03-21T00:31:39.800Z,67.63
2023-03-21T00:34:06.756Z,67.39
2023-03-21T00:36:34.418Z,67.37
2023-03-21T00:39:01.609Z,67.43
2023-03-21T00:41:42.071Z,67.14
2023-03-21T00:44:11.879Z,67.34
2023-03-21T00:46:51.331Z,67.43
2023-03-21T00:49:25.560Z,67.20
2023-03-21T00:51:53.299Z,67.24
2023-03-21T00:54:20.411Z,66.82
2023-03-21T00:56:48.361Z,66.99
2023-03-21T00:59:15.656Z,67.17
2023-03-21T01:01:44.068Z,66.95
2023-03-21T01:04:14.697Z,66.96
2023-03-21T01:06:43.829Z,66.80
2023-03-21T01:09:20.976Z,66.96
2023-03-21T01:11:49.218Z,66.74
2023-03-21T01:14:22.999Z,66.70
2023-03-21T01:16:53.114Z,66.79
2023-03-21T01:19:29.206Z,66.75
2023-03-21T01:22:00.354Z,66.72
2023-03-21T01:24:27.372Z,67.01
2023-03-21T01:26:54.618Z,66.92
2023-03-21T01:29:21.834Z,66.82
2023-03-21T01:31:49.041Z,66.68
2023-03-21T01:34:16.366Z,66.70
2023-03-21T01:36:44.221Z,66.84
2023-03-21T01:39:16.306Z,66.96
2023-03-21T01:41:44.736Z,66.96
2023-03-21T01:44:20.942Z,66.93
2023-03-21T01:47:12.481Z,66.92
2023-03-21T01:49:51.526Z,66.67
2023-03-21T01:52:36.924Z,66.74
2023-03-21T01:55:12.579Z,66.93
2023-03-21T01:58:04.734Z,66.66
2023-03-21T02:00:41.699Z,66.61
2023-03-21T02:03:35.078Z,66.65
2023-03-21T02:06:20.409Z,66.89
2023-03-21T02:08:50.173Z,66.65
2023-03-21T02:11:17.520Z,66.79
2023-03-21T02:13:44.701Z,66.71
2023-03-21T02:16:26.488Z,66.40
2023-03-21T02:19:32.879Z,66.49
2023-03-21T02:22:32.663Z,66.52
2023-03-21T02:25:31.355Z,66.58
2023-03-21T02:28:24.965Z,66.26
2023-03-21T02:31:24.534Z,66.46
2023-03-21T02:34:00.136Z,66.36
2023-03-21T02:36:52.162Z,66.67
2023-03-21T02:39:32.145Z,66.89
2023-03-21T02:42:11.640Z,66.85
2023-03-21T02:44:47.389Z,66.97
2023-03-21T02:47:35.124Z,66.77
2023-03-21T02:50:09.513Z,66.88
2023-03-21T02:52:39.817Z,66.98
2023-03-21T02:55:15.670Z,66.86
2023-03-21T02:58:06.933Z,66.70
2023-03-21T03:00:44.664Z,66.90
2023-03-21T03:03:24.876Z,66.83
2023-03-21T03:06:01.276Z,66.78
2023-03-21T03:08:53.044Z,66.66
2023-03-21T03:11:41.836Z,66.59
2023-03-21T03:14:49.930Z,66.55
2023-03-21T03:17:38.986Z,66.70
2023-03-21T03:20:29.088Z,66.50
2023-03-21T03:22:59.962Z,66.48
2023-03-21T03:25:49.621Z,66.48
2023-03-21T03:28:27.067Z,66.38
2023-03-21T03:31:08.031Z,66.35
2023-03-21T03:33:47.832Z,66.35
2023-03-21T03:36:33.604Z,66.53
2023-03-21T03:39:11.468Z,66.21
2023-03-21T03:44:39.101Z,66.38
2023-03-21T03:47:22.857Z,66.51
2023-03-21T03:50:06.479Z,66.93
2023-03-21T03:52:53.638Z,66.85
2023-03-21T03:55:27.334Z,66.91
2023-03-21T03:57:59.081Z,66.99
2023-03-21T04:00:28.237Z,66.98
2023-03-21T04:02:55.779Z,67.39
2023-03-21T04:05:25.220Z,67.11
2023-03-21T04:07:54.026Z,67.17
2023-03-21T04:10:28.820Z,67.45
2023-03-21T04:12:56.016Z,67.45
2023-03-21T04:15:41.585Z,67.40
2023-03-21T04:18:14.148Z,67.65
2023-03-21T04:20:42.024Z,67.65
2023-03-21T04:23:09.198Z,67.73
2023-03-21T04:25:42.274Z,67.82
2023-03-21T04:28:15.941Z,67.68
2023-03-21T04:31:03.802Z,68.00
2023-03-21T04:33:43.191Z,67.90
2023-03-21T04:36:18.805Z,67.76
2023-03-21T04:38:48.692Z,67.88
2023-03-21T04:41:16.846Z,67.58
2023-03-21T04:43:44.786Z,67.73
2023-03-21T04:46:12.240Z,67.64
2023-03-21T04:48:39.385Z,67.65
2023-03-21T04:51:07.529Z,67.65
2023-03-21T04:53:37.744Z,67.66
2023-03-21T04:56:07.040Z,67.67
2023-03-21T04:58:34.569Z,67.78
2023-03-21T05:01:03.055Z,67.81
2023-03-21T05:03:34.947Z,67.94
2023-03-21T05:06:02.030Z,67.67
2023-03-21T05:08:28.913Z,67.97
2023-03-21T05:10:55.915Z,67.96
2023-03-21T05:13:29.528Z,67.83
2023-03-21T05:15:56.785Z,67.63
2023-03-21T05:18:25.171Z,67.78
2023-03-21T05:21:04.396Z,67.60
2023-03-21T05:23:32.084Z,67.91
2023-03-21T05:25:59.466Z,67.67
2023-03-21T05:28:40.211Z,67.54
2023-03-21T05:31:09.033Z,67.66
2023-03-21T05:33:36.346Z,67.65
2023-03-21T05:36:03.518Z,67.86
2023-03-21T05:38:33.550Z,67.77
2023-03-21T05:41:00.768Z,67.83
2023-03-21T05:43:28.878Z,67.95
2023-03-21T05:45:56.094Z,67.81
2023-03-21T05:48:23.883Z,67.83
2023-03-21T05:51:05.285Z,67.91
2023-03-21T05:53:32.278Z,68.03
2023-03-21T05:55:59.083Z,67.84
2023-03-21T05:58:47.684Z,67.95
2023-03-21T06:01:15.011Z,68.21
2023-03-21T06:03:48.212Z,68.06
2023-03-21T06:06:22.418Z,68.01
2023-03-21T06:08:54.024Z,68.05
2023-03-21T06:11:30.886Z,68.02
2023-03-21T06:14:18.410Z,67.93
2023-03-21T06:16:49.730Z,67.94
2023-03-21T06:19:16.996Z,68.03
2023-03-21T06:22:00.434Z,67.98
2023-03-21T06:24:28.066Z,68.17
2023-03-21T06:26:55.033Z,68.24
2023-03-21T06:29:22.809Z,68.30
2023-03-21T06:31:51.083Z,68.28
2023-03-21T06:34:19.179Z,68.12
2023-03-21T06:36:47.133Z,68.00
2023-03-21T06:39:16.313Z,68.08
2023-03-21T06:41:46.106Z,67.95
2023-03-21T06:44:13.372Z,68.00
2023-03-21T06:46:49.597Z,67.80
2023-03-21T06:49:20.368Z,67.75
2023-03-21T06:51:47.420Z,67.74
2023-03-21T06:54:19.076Z,67.71
2023-03-21T06:57:13.721Z,67.74
2023-03-21T06:59:42.149Z,67.62
2023-03-21T07:02:13.809Z,67.72
2023-03-21T07:04:46.896Z,67.36
2023-03-21T07:07:19.009Z,67.48
2023-03-21T07:09:46.211Z,67.27
2023-03-21T07:12:13.120Z,67.26
2023-03-21T07:15:01.378Z,67.36
2023-03-21T07:17:28.694Z,67.49
2023-03-21T07:19:57.357Z,67.36
2023-03-21T07:22:26.455Z,67.41
2023-03-21T07:25:04.382Z,67.49
2023-03-21T07:27:40.791Z,67.43
2023-03-21T07:30:09.408Z,67.39
2023-03-21T07:32:38.264Z,67.27
2023-03-21T07:35:09.240Z,67.28
2023-03-21T07:37:37.905Z,67.18
2023-03-21T07:40:15.429Z,67.19
2023-03-21T07:42:42.812Z,66.97
2023-03-21T07:45:20.711Z,66.98
2023-03-21T07:47:49.812Z,67.19
2023-03-21T07:50:16.949Z,67.14
2023-03-21T07:52:45.636Z,66.85
2023-03-21T07:55:12.547Z,67.03
2023-03-21T07:57:40.969Z,66.85
2023-03-21T08:00:08.858Z,66.89
2023-03-21T08:02:42.515Z,66.83
2023-03-21T08:05:11.678Z,67.13
2023-03-21T08:07:38.871Z,66.87
2023-03-21T08:10:10.221Z,66.88
2023-03-21T08:12:37.482Z,66.72
2023-03-21T08:15:04.753Z,66.72
2023-03-21T08:17:31.674Z,66.74
2023-03-21T08:19:58.573Z,66.66
2023-03-21T08:22:25.721Z,66.53
2023-03-21T08:24:52.933Z,66.36
2023-03-21T08:27:20.943Z,66.10
2023-03-21T08:29:47.802Z,66.33
2023-03-21T08:32:18.479Z,66.24
2023-03-21T08:34:45.723Z,66.16
2023-03-21T08:37:12.675Z,65.92
2023-03-21T08:39:40.632Z,65.71
2023-03-21T08:42:08.149Z,64.59
2023-03-21T08:44:35.019Z,64.63
2023-03-21T08:47:02.390Z,64.47
2023-03-21T08:49:29.285Z,63.65
2023-03-21T08:51:57.063Z,63.75
2023-03-21T08:54:25.389Z,63.85
2023-03-21T08:56:52.329Z,62.67
2023-03-21T08:59:19.814Z,62.14
2023-03-21T09:01:48.727Z,61.83
2023-03-21T09:04:15.708Z,61.89
2023-03-21T09:06:48.039Z,61.94
2023-03-21T09:09:16.026Z,61.61
2023-03-21T09:11:43.016Z,61.18
2023-03-21T09:14:10.104Z,61.36
2023-03-21T09:16:39.310Z,61.29
2023-03-21T09:19:09.200Z,61.47
2023-03-21T09:21:36.952Z,61.55
2023-03-21T09:24:06.213Z,60.98
2023-03-21T09:26:33.533Z,61.44
2023-03-21T09:29:03.914Z,61.96
2023-03-21T09:31:31.193Z,61.72
2023-03-21T09:33:58.510Z,62.06
2023-03-21T09:36:27.422Z,62.78
2023-03-21T09:38:57.595Z,61.53
2023-03-21T09:41:36.455Z,60.35
2023-03-21T09:44:33.485Z,59.20
2023-03-21T09:47:10.468Z,58.79
2023-03-21T09:49:44.808Z,58.11
2023-03-21T09:52:22.750Z,59.33
2023-03-21T09:54:52.762Z,59.74
2023-03-21T09:57:27.430Z,59.86
2023-03-21T09:59:56.599Z,58.43
2023-03-21T10:02:47.306Z,59.05
2023-03-21T10:05:24.062Z,59.35
2023-03-21T10:08:07.429Z,58.11
2023-03-21T10:11:15.531Z,57.60
2023-03-21T10:13:53.594Z,57.44
2023-03-21T10:16:27.708Z,57.98
2023-03-21T10:18:55.910Z,58.67
2023-03-21T10:21:56.664Z,59.56
2023-03-21T10:24:20.126Z,59.20
2023-03-21T10:26:48.238Z,59.33
2023-03-21T10:29:17.439Z,57.68
2023-03-21T10:31:46.993Z,58.57
2023-03-21T10:34:20.277Z,56.87
2023-03-21T10:36:47.870Z,57.58
2023-03-21T10:39:23.264Z,57.07
2023-03-21T10:41:50.166Z,57.67
2023-03-21T10:44:18.776Z,58.38
2023-03-21T10:46:57.704Z,57.62
2023-03-21T10:49:26.706Z,57.06
2023-03-21T10:51:58.113Z,57.52
2023-03-21T10:54:36.829Z,57.03
2023-03-21T10:57:08.407Z,54.63
2023-03-21T10:59:58.215Z,54.54
2023-03-21T11:02:30.525Z,54.97
2023-03-21T11:05:05.013Z,54.59
2023-03-21T11:07:32.442Z,53.33
2023-03-21T11:10:01.063Z,52.66
2023-03-21T11:12:38.387Z,52.92
2023-03-21T11:15:27.966Z,52.90
2023-03-21T11:17:55.456Z,54.42
2023-03-21T11:20:23.113Z,51.76
2023-03-21T11:22:55.611Z,50.26
2023-03-21T11:25:34.077Z,51.21
2023-03-21T11:28:07.287Z,50.24
2023-03-21T11:30:34.313Z,49.62
2023-03-21T11:33:03.827Z,50.05
2023-03-21T11:35:37.766Z,49.46
2023-03-21T11:38:07.264Z,50.33
2023-03-21T11:40:36.619Z,49.44
2023-03-21T11:43:28.488Z,48.25
2023-03-21T11:46:04.653Z,49.10
2023-03-21T11:48:50.114Z,50.25
2023-03-21T11:51:49.749Z,49.72
2023-03-21T11:54:20.010Z,49.76
2023-03-21T11:57:01.013Z,49.63
2023-03-21T11:59:31.036Z,48.97
2023-03-21T12:02:04.434Z,48.75
2023-03-21T12:04:46.697Z,49.59
2023-03-21T12:07:27.424Z,48.02
2023-03-21T12:09:57.912Z,47.70
2023-03-21T12:12:36.544Z,47.92
2023-03-21T12:15:49.475Z,47.65
2023-03-21T12:18:35.374Z,48.30
2023-03-21T12:21:09.799Z,47.53
2023-03-21T12:23:49.303Z,47.62
2023-03-21T12:26:27.290Z,47.46
2023-03-21T12:29:22.106Z,46.23
2023-03-21T12:32:17.213Z,46.80
2023-03-21T12:35:15.056Z,47.49
2023-03-21T12:38:24.677Z,47.31
2023-03-21T12:41:12.008Z,47.32
2023-03-21T12:44:04.524Z,46.82
2023-03-21T12:46:46.944Z,45.50
2023-03-21T12:49:30.769Z,45.55
2023-03-21T12:52:22.084Z,45.72
2023-03-21T12:54:58.478Z,46.30
2023-03-21T12:57:56.484Z,45.89
2023-03-21T13:00:33.368Z,46.17
2023-03-21T13:03:08.767Z,46.41
2023-03-21T13:05:50.641Z,43.63
2023-03-21T13:08:31.489Z,44.19
2023-03-21T13:11:00.270Z,44.49
2023-03-21T13:13:35.561Z,44.18
2023-03-21T13:16:30.482Z,42.89
2023-03-21T13:19:22.164Z,42.31
2023-03-21T13:22:01.741Z,42.97
2023-03-21T13:25:06.324Z,41.77
2023-03-21T13:27:43.121Z,41.92
2023-03-21T13:30:29.635Z,42.44
2023-03-21T13:33:14.522Z,43.52
2023-03-21T13:35:46.382Z,43.93
2023-03-21T13:38:22.549Z,43.88
2023-03-21T13:41:06.194Z,44.56
2023-03-21T13:43:45.713Z,44.50
2023-03-21T13:46:26.567Z,44.93
2023-03-21T13:48:58.861Z,44.27
2023-03-21T13:51:48.934Z,44.69
2023-03-21T13:54:35.035Z,45.05
2023-03-21T13:57:07.014Z,45.03
2023-03-21T13:59:45.435Z,44.65
2023-03-21T14:02:12.869Z,44.52
2023-03-21T14:04:53.903Z,44.81
2023-03-21T14:07:44.918Z,44.90
2023-03-21T14:10:22.611Z,45.41
2023-03-21T14:12:50.717Z,44.98
2023-03-21T14:15:25.098Z,45.12
2023-03-21T14:18:01.603Z,45.82
2023-03-21T14:20:39.350Z,45.97
2023-03-21T14:23:07.215Z,45.99
2023-03-21T14:25:46.814Z,46.01
2023-03-21T14:28:33.038Z,46.09
2023-03-21T14:31:02.151Z,46.09
2023-03-21T14:33:57.786Z,46.55
2023-03-21T14:36:29.972Z,46.02
2023-03-21T14:39:16.002Z,46.33
2023-03-21T14:41:54.098Z,46.65
2023-03-21T14:44:28.278Z,46.86
2023-03-21T14:47:08.410Z,47.05
2023-03-21T14:49:38.807Z,47.38
2023-03-21T14:52:15.075Z,47.70
2023-03-21T14:54:47.441Z,47.93
2023-03-21T14:57:20.085Z,47.82
2023-03-21T14:59:53.643Z,47.79
2023-03-21T15:02:26.918Z,47.83
2023-03-21T15:04:58.121Z,47.72
2023-03-21T15:07:32.616Z,48.14
2023-03-21T15:10:05.250Z,48.67
2023-03-21T15:12:34.735Z,48.68
2023-03-21T15:15:03.621Z,48.52
2023-03-21T15:17:31.361Z,48.88
2023-03-21T15:19:58.241Z,48.95
2023-03-21T15:22:39.442Z,48.91
2023-03-21T15:25:13.349Z,48.83
2023-03-21T15:27:42.762Z,49.04
2023-03-21T15:30:22.717Z,49.08
2023-03-21T15:32:49.832Z,49.06
2023-03-21T15:35:21.622Z,48.99
2023-03-21T15:37:58.563Z,49.47
2023-03-21T15:40:35.918Z,49.74
2023-03-21T15:43:07.707Z,49.69
2023-03-21T15:45:56.919Z,49.99
2023-03-21T15:48:29.451Z,50.05
2023-03-21T15:51:23.735Z,49.98
2023-03-21T15:53:55.310Z,50.26
2023-03-21T15:56:25.251Z,50.31
2023-03-21T15:58:55.780Z,50.51
2023-03-21T16:01:26.581Z,50.48
2023-03-21T16:04:13.894Z,50.60
2023-03-21T16:09:42.852Z,50.93
2023-03-21T16:12:13.080Z,51.13
2023-03-21T16:14:40.354Z,51.23
2023-03-21T16:17:28.436Z,51.67
2023-03-21T16:19:55.456Z,51.77
2023-03-21T16:22:22.493Z,52.00
2023-03-21T16:24:49.905Z,52.21
2023-03-21T16:27:19.018Z,52.16
2023-03-21T16:29:46.212Z,52.05
2023-03-21T16:32:16.879Z,52.52
2023-03-21T16:34:44.750Z,52.59
2023-03-21T16:37:12.995Z,52.93
2023-03-21T16:39:39.842Z,53.02
2023-03-21T16:42:07.322Z,53.01
2023-03-21T16:44:35.874Z,53.05
2023-03-21T16:47:03.187Z,53.27
2023-03-21T16:49:30.635Z,53.46
2023-03-21T16:51:57.858Z,53.64
2023-03-21T16:54:25.953Z,53.78
2023-03-21T16:56:56.361Z,53.94
2023-03-21T16:59:33.002Z,53.94
2023-03-21T17:02:00.101Z,54.03
2023-03-21T17:04:27.152Z,54.25
2023-03-21T17:06:55.220Z,54.35
2023-03-21T17:09:26.523Z,54.41
2023-03-21T17:11:53.631Z,54.62
2023-03-21T17:14:24.079Z,54.50
2023-03-21T17:16:51.082Z,54.70
2023-03-21T17:19:26.557Z,54.88
2023-03-21T17:21:55.369Z,54.94
2023-03-21T17:24:24.049Z,55.16
2023-03-21T17:26:51.728Z,55.00
2023-03-21T17:29:18.559Z,55.23
2023-03-21T17:31:47.603Z,55.34
2023-03-21T17:34:16.027Z,55.55
2023-03-21T17:36:45.269Z,55.75
2023-03-21T17:39:19.096Z,56.01
2023-03-21T17:41:47.613Z,56.17
2023-03-21T17:44:17.642Z,56.55
2023-03-21T17:46:44.971Z,56.83
2023-03-21T17:49:15.545Z,57.17
2023-03-21T17:51:43.859Z,57.31
2023-03-21T17:54:10.646Z,57.44
2023-03-21T17:56:37.757Z,58.04
2023-03-21T17:59:09.069Z,58.32
2023-03-21T18:01:36.484Z,58.58
2023-03-21T18:04:08.131Z,58.86
2023-03-21T18:06:37.582Z,58.81
2023-03-21T18:09:11.402Z,58.97
2023-03-21T18:11:39.632Z,59.38
2023-03-21T18:14:15.749Z,59.66
2023-03-21T18:16:45.118Z,59.88
2023-03-21T18:19:14.472Z,60.19
2023-03-21T18:21:45.509Z,60.14
2023-03-21T18:24:13.808Z,60.39
2023-03-21T18:26:41.345Z,60.77
2023-03-21T18:32:06.252Z,61.12
2023-03-21T18:34:38.920Z,61.28
2023-03-21T18:37:08.416Z,61.10
2023-03-21T18:39:35.788Z,61.32
2023-03-21T18:42:05.408Z,61.49
2023-03-21T18:44:39.014Z,61.67
2023-03-21T18:47:08.753Z,61.59
2023-03-21T18:52:30.197Z,61.26
2023-03-21T18:54:58.302Z,61.54
2023-03-21T18:57:36.437Z,61.70
2023-03-21T19:00:13.175Z,61.95
2023-03-21T19:02:48.330Z,61.98
2023-03-21T19:05:18.077Z,62.33
2023-03-21T19:07:48.356Z,62.50
2023-03-21T19:10:21.090Z,62.95
2023-03-21T19:12:51.505Z,62.85
2023-03-21T19:15:21.597Z,62.89
2023-03-21T19:20:37.591Z,62.99
2023-03-21T19:23:06.474Z,63.24
2023-03-21T19:25:33.327Z,63.23
2023-03-21T19:28:01.005Z,63.58
2023-03-21T19:30:27.959Z,63.51
2023-03-21T19:32:55.564Z,63.75
2023-03-21T19:35:23.507Z,63.42
2023-03-21T19:37:51.564Z,63.80
2023-03-21T19:40:20.209Z,63.78
2023-03-21T19:42:47.829Z,63.76
2023-03-21T19:45:15.793Z,63.80
2023-03-21T19:47:42.713Z,63.87
2023-03-21T19:52:57.314Z,64.28
2023-03-21T19:55:24.371Z,64.35
2023-03-21T19:57:53.816Z,64.39
2023-03-21T20:00:21.343Z,64.28
2023-03-21T20:02:48.454Z,64.40
2023-03-21T20:05:17.483Z,64.79
2023-03-21T20:07:45.083Z,64.61
2023-03-21T20:10:12.126Z,64.78
2023-03-21T20:12:39.781Z,64.63
2023-03-21T20:15:17.304Z,65.03
2023-03-21T20:17:49.626Z,64.61
2023-03-21T20:20:18.596Z,64.75
2023-03-21T20:23:06.091Z,64.69
2023-03-21T20:25:35.657Z,64.75
2023-03-21T20:28:25.950Z,64.78
2023-03-21T20:30:57.075Z,64.80
2023-03-21T20:33:28.297Z,65.09
2023-03-21T20:38:47.006Z,65.32
2023-03-21T20:41:14.195Z,65.28
2023-03-21T20:46:28.830Z,65.40
2023-03-21T20:48:55.953Z,65.44
2023-03-21T20:54:11.303Z,65.38
2023-03-21T20:56:39.675Z,65.22
2023-03-21T20:59:18.736Z,65.13
2023-03-21T21:01:51.279Z,65.37
2023-03-21T21:04:20.567Z,65.40
2023-03-21T21:06:48.439Z,65.71
2023-03-21T21:09:16.853Z,65.59
2023-03-21T21:14:33.601Z,65.74
2023-03-21T21:17:22.518Z,65.79
2023-03-21T21:19:50.136Z,65.71
2023-03-21T21:22:17.684Z,65.61
2023-03-21T21:24:45.008Z,65.90
2023-03-21T21:27:13.999Z,66.12
2023-03-21T21:29:43.570Z,66.00
2023-03-21T21:32:11.496Z,65.89
2023-03-21T21:34:38.568Z,65.88
2023-03-21T21:37:05.967Z,65.81
2023-03-21T21:39:35.584Z,65.96
2023-03-21T21:42:03.758Z,65.82
2023-03-21T21:44:31.350Z,65.72
2023-03-21T21:46:59.839Z,65.57
2023-03-21T21:49:29.446Z,65.54
2023-03-21T21:51:56.462Z,65.52
2023-03-21T21:54:23.433Z,65.50
2023-03-21T21:56:54.317Z,65.52
2023-03-21T21:59:22.385Z,65.30
2023-03-21T22:01:51.621Z,65.27
2023-03-21T22:04:27.973Z,65.33
2023-03-21T22:06:55.871Z,65.58
2023-03-21T22:09:23.185Z,65.43
2023-03-21T22:11:51.144Z,65.58
2023-03-21T22:14:18.093Z,65.54
2023-03-21T22:16:46.963Z,65.54
2023-03-21T22:19:14.891Z,65.28
2023-03-21T22:21:41.738Z,65.41
2023-03-21T22:24:08.838Z,65.53
2023-03-21T22:26:36.013Z,65.49
2023-03-21T22:29:02.969Z,65.57
2023-03-21T22:31:29.883Z,65.51
2023-03-21T22:33:56.836Z,65.72
2023-03-21T22:36:24.026Z,65.84
2023-03-21T22:38:50.970Z,66.10
2023-03-21T22:41:17.812Z,66.02
2023-03-21T22:43:44.671Z,65.92
2023-03-21T22:46:12.140Z,66.17
2023-03-21T22:48:39.065Z,66.24
2023-03-21T22:51:06.230Z,66.01
2023-03-21T22:53:33.081Z,66.18
2023-03-21T22:56:00.012Z,66.26
2023-03-21T22:58:27.850Z,66.44
2023-03-21T23:01:00.982Z,66.55
2023-03-21T23:03:28.308Z,66.19
2023-03-21T23:05:59.350Z,66.33
2023-03-21T23:08:27.368Z,66.42
2023-03-21T23:10:54.535Z,66.30
2023-03-21T23:13:23.944Z,66.51
2023-03-21T23:15:52.832Z,66.35
2023-03-21T23:18:19.916Z,66.59
2023-03-21T23:20:49.771Z,66.51
2023-03-21T23:23:16.813Z,66.23
2023-03-21T23:25:43.801Z,66.29
2023-03-21T23:28:10.629Z,66.14
2023-03-21T23:30:39.261Z,66.18
2023-03-21T23:33:06.240Z,65.89
2023-03-21T23:35:36.042Z,66.03
2023-03-21T23:38:03.274Z,65.79
2023-03-21T23:40:31.007Z,65.74
2023-03-21T23:42:59.761Z,65.74
2023-03-21T23:45:26.973Z,65.76
2023-03-21T23:47:53.859Z,65.76
2023-03-21T23:50:20.844Z,65.83
2023-03-21T23:52:49.496Z,65.65
2023-03-21T23:55:16.503Z,65.83
2023-03-21T23:57:44.038Z,65.69
